Weather observations for the past three days for
Houma-Terrebonne Airport
Metric (Imperial)
Date Time (cdt) Wind (kph) Vis. (km) Weather Sky Cond. Temperature (ºC) Relative Humidity Wind Chill (°C) Heat Index (°C) Pressure Precipitation (cm)
Air Dwpt 6 hour altimeter (cm) sea level (mb) 1 hr 3 hr 6 hr
Max. Min.
09 18:47 SE 15 11.27 Overcast BKN006 OVC050 21 20 94% 75.97 0.0
09 17:47 E 15 11.27 Mostly Cloudy SCT008 BKN037 21 20 94% 75.92 0.0
09 16:47 E 9 11.27 Mostly Cloudy BKN006 BKN022 21 20 94% 75.92 0.0
09 15:47 SE 13 8.05 Light Rain BKN006 OVC075 21 20 94% 75.92 0.0
09 14:47 E 17 8.05 Partly Cloudy SCT004 SCT012 20 20 100% 75.95 0.0
09 13:47 SE 17 11.27 Mostly Cloudy BKN006 BKN027 20 19 94% 76.02 0.0
09 12:47 E 20 11.27 Mostly Cloudy BKN008 BKN013 20 19 94% 76.02 0.0
09 11:47 NE 22 11.27 Overcast BKN008 OVC012 20 20 100% 76.02 0.0
09 10:50 NE 20 G 33 8.05 Light Rain BKN009 OVC031 20 19 94% 76.05 0.0
09 09:50 N 11 G 33 11.27 Overcast BKN031 OVC036 19 19 100% 76.02 0.0
09 07:47 S 9 11.27 Overcast BKN008 OVC014 26 24 89% 28 75.9 0.0
09 06:47 S 9 11.27 Overcast BKN011 OVC017 24 23 94% 23 75.87 0.0
09 05:47 S 15 11.27 Overcast OVC016 24 23 94% 23 75.79 0.0
08 18:47 E 17 11.27 Mostly Cloudy SCT060 BKN100 21 21 100% 75.95 0.0
08 17:47 E 19 11.27 Mostly Cloudy SCT060 BKN065 21 20 94% 75.95 0.0
08 16:47 NE 28 G 37 11.27 Light Rain SCT009 OVC046 20 20 100% 76.02 0.0
08 15:47 N 35 G 44 6.44 Light Rain and Breezy SCT007 BKN016 20 19 94% 76.05 0.0
08 14:47 S 24 11.27 Partly Cloudy SCT025 SCT044 29 23 70% 33 75.9 0.0
08 13:47 SE 20 11.27 Partly Cloudy SCT027 SCT065 29 23 70% 33 75.95 0.0
08 12:47 SE 13 11.27 Mostly Cloudy BKN020 BKN028 29 22 66% 32 75.97 0.0
08 11:47 NE 17 8.05 Partly Cloudy SCT009 23 22 94% 76.1 0.0
08 10:47 E 17 11.27 Overcast OVC005 22 21 94% 76.07 0.0
08 09:47 NE 20 11.27 Overcast OVC005 23 21 89% 76.07 0.0
08 08:47 NE 17 8.05 Overcast OVC004 21 21 100% 76.07 0.0
08 07:47 N 15 8.05 Overcast OVC005 21 21 100% 76.1 0.0
08 06:47 E 9 8.05 Overcast OVC005 21 20 94% 76.07 0.0
08 05:47 N 6 11.27 Overcast OVC007 21 20 94% 76.05 0.0
07 18:47 NE 9 11.27 Overcast OVC016 22 21 94% 76.05 0.0
07 17:47 N 9 8.05 Fog/Mist OVC012 22 21 94% 76.05 0.0
07 16:55 N 11 8.05 Fog/Mist OVC009 23 21 89% 76.02 0.0
07 15:47 N 15 11.27 Overcast OVC006 23 21 89% 76.02 0.0
07 14:47 N 15 11.27 Overcast OVC006 24 22 89% 24 76.05 0.0
07 13:47 N 11 4.83 Fog/Mist OVC005 23 22 94% 76.07 0.0
07 12:47 N 7 8.05 Fog/Mist OVC006 24 23 94% 23 76.1 0.0
07 11:50 N 9 6.44 Fog/Mist OVC004 24 23 94% 23 76.12 0.0
07 10:55 N 9 2.01 Fog/Mist OVC004 23 23 100% 76.12 0.0
07 09:47 SW 9 4.83 Fog/Mist OVC004 25 24 94% 26 76.1 0.0
07 08:47 SW 7 6.44 Fog/Mist OVC005 25 24 94% 26 76.07 0.0
07 07:50 SW 9 6.44 Fog/Mist OVC006 25 24 94% 26 76.05 0.0
07 06:50 S 9 3.22 Fog/Mist OVC006 25 24 94% 26 76 0.0
07 05:50 S 9 11.27 Overcast BKN010 OVC017 26 24 89% 28 75.97 0.0
Date Time (cdt) Wind (kph) Vis. (km) Weather Sky Cond. Air Dwpt Max. Min. Relative Humidity Wind Chill (°C) Heat Index (°C) altimeter (cm) sea level (mb) 1 hr 3 hr 6 hr
6 hour
Temperature (ºC) Pressure Precipitation (cm)